This is the latest recevied weather packets stored in our database for station/object SP6PGH-13. If no packets are shown the sender has not sent any weather packets the latest 10 day(s).
| Time | Temp. | Humidity | Pressure | Rain* | Wind** | Luminosity | Snow |
|---|---|---|---|---|---|---|---|
| 1788244542 | 17.78° C | 71% | 1003.6 hPa | - | - | 175 W/m² | - |
| 1788243641 | 16.67° C | 74% | 1003.5 hPa | - | - | 84 W/m² | - |
| 1788242740 | 16.67° C | 73% | 1003.4 hPa | - | - | 72 W/m² | - |
| 1788241839 | 16.11° C | 75% | 1003.2 hPa | - | - | 42 W/m² | - |
| 1788240938 | 16.11° C | 76% | 1003.1 hPa | - | - | 37 W/m² | - |
| 1788240036 | 15.56° C | 77% | 1002.9 hPa | - | - | 32 W/m² | - |
| 1788239135 | 15° C | 80% | 1002.8 hPa | - | - | 28 W/m² | - |
| 1788238234 | 14.44° C | 82% | 1002.7 hPa | - | - | 22 W/m² | - |
| 1788237333 | 13.89° C | 84% | 1002.5 hPa | - | - | 14 W/m² | - |
| 1788236432 | 13.89° C | 86% | 1002.3 hPa | - | - | 8 W/m² | - |
| 1788222015 | 17.22° C | 73% | 1001.5 hPa | - | - | - | - |
| 1788220213 | 16.67° C | 75% | 1001.5 hPa | - | - | - | - |
| 1788219312 | 16.67° C | 76% | 1001.5 hPa | - | - | - | - |
| 1788212099 | 16.67° C | 82% | 1001.1 hPa | - | - | - | - |
| 1788211198 | 16.67° C | 84% | 1000.6 hPa | - | - | - | - |
| 1788210297 | 16.67° C | 85% | 1000.7 hPa | - | - | - | - |
| 1788209396 | 17.22° C | 83% | 1000.6 hPa | - | - | - | - |
| 1788208495 | 17.78° C | 82% | 1000.4 hPa | - | - | - | - |
| 1788207594 | 17.78° C | 82% | 1000.7 hPa | - | - | - | - |
| 1788206693 | 17.78° C | 82% | 1000.7 hPa | - | - | - | - |
| 1788204891 | 18.33° C | 81% | 1000.4 hPa | - | - | - | - |
| 1788203990 | 18.33° C | 80% | 1000.3 hPa | - | - | - | - |
| 1788203089 | 18.89° C | 78% | 1000.3 hPa | - | - | - | - |
| 1788201287 | 19.44° C | 76% | 1000.2 hPa | - | - | - | - |
| 1788200386 | 20° C | 74% | 1000.1 hPa | - | - | - | - |
* Rain since midnight (hover to see other rain measurements)
** Current wind speed in m/s (hover to see current wind gust speed)